Etusivu
METAR-TAF:

METAR-TAF

Lentoasemat :

Arad, Romania

Leveyspiiri: 46-12N, Pituuspiiri: 021-24E, korkeus merenpinnasta: 117 m

Tämänhetkinen sää

Tämä raportti tehtiin 19 minuuttia sitten, kello 08.30 UTC
Tuuli 10 kn lounaasta, vaihdellen etelän ja lännen/lounaan välillä
Lämpötila 26°C
Kosteus 45%
Ilmanpaine 1008 hPa
Näkyvyys 10 km tai enemmän
ei pilviä alle 1500 m:ssä eikä cumulonimbus-pilviä

METAR: LRAR 070830Z 22010KT 180V240 CAVOK 26/13 Q1008

Aika: 11:49 (08:49 UTC)

Sääennuste

Tämä raportti tehtiin 49 minuuttia sitten, kello 08.00 UTC
Ennuste voimassa 07. päivästä klo 09 UTC - 07. päivään klo 18 UTC
Tuuli 12 kn etelästä/lounaasta
Näkyvyys 10 km tai enemmän
ei pilviä alle 1500 m:ssä eikä cumulonimbus-pilviä
Ajoittain
07. päivästä klo 09 UTC - 07. päivään klo 14 UTC
Näkyvyys: 5000 m
Hajanaisia pilviä 4000 ft:n korkeudessa, Cumulonimbus.
ukkosmyrsky, heikkoa sadetta

TAF: LRAR 070800Z 0709/0718 20012KT CAVOK TEMPO 0709/0714 5000 -TSRA SCT040CB

Säähavainnot ja -ennusteet yli 4000 lentoasemalta (METAR- ja TAF-raportit).

Käytössä olevat sääasemat on merkitty karttaan keltaisilla ja punaisilla pisteillä.

Aseta hiiri pisteen päälle nähdäksesi sääaseman nimen.

Klikkaa sitten nähdäksesi säähavainnot ja -ennusteet.

Kartan vaihtaminen: klikkaa mustalla rastilla varustettuja vihreitä pisteitä, niin voit zoomata sisään; viivalla varustettua vihreää pistettä, niin voit zoomata ulos tai vihreitä nuolia, niin pääset viereisille kartoille.


METAR-TAF: